createdAt,value
2023-08-09T00:00:58.719Z,0.95
2023-08-09T00:03:28.159Z,0.82
2023-08-09T00:05:56.880Z,0.95
2023-08-09T00:08:25.705Z,0.95
2023-08-09T00:10:54.421Z,0.80
2023-08-09T00:13:23.165Z,0.90
2023-08-09T00:15:55.503Z,0.82
2023-08-09T00:18:24.324Z,0.85
2023-08-09T00:20:58.031Z,0.82
2023-08-09T00:23:28.018Z,0.90
2023-08-09T00:25:57.476Z,0.70
2023-08-09T00:28:26.449Z,0.75
2023-08-09T00:31:00.001Z,0.70
2023-08-09T00:33:26.180Z,0.98
2023-08-09T00:35:54.872Z,0.88
2023-08-09T00:38:24.134Z,1.10
2023-08-09T00:40:52.891Z,0.82
2023-08-09T00:43:21.670Z,1.00
2023-08-09T00:45:50.962Z,1.00
2023-08-09T00:48:19.917Z,0.75
2023-08-09T00:50:49.263Z,0.80
2023-08-09T00:53:19.318Z,0.98
2023-08-09T00:55:55.486Z,1.10
2023-08-09T00:58:39.915Z,0.90
2023-08-09T01:01:15.552Z,0.90
2023-08-09T01:03:46.049Z,0.90
2023-08-09T01:06:27.863Z,1.05
2023-08-09T01:09:14.242Z,1.77
2023-08-09T01:11:49.521Z,0.93
2023-08-09T01:14:25.455Z,0.95
2023-08-09T01:16:57.251Z,1.00
2023-08-09T01:19:44.131Z,1.20
2023-08-09T01:22:18.643Z,1.07
2023-08-09T01:24:50.587Z,1.05
2023-08-09T01:27:22.468Z,1.00
2023-08-09T01:29:51.295Z,1.10
2023-08-09T01:32:20.126Z,1.60
2023-08-09T01:34:48.997Z,1.02
2023-08-09T01:37:29.865Z,0.93
2023-08-09T01:40:01.815Z,1.07
2023-08-09T01:42:30.684Z,1.02
2023-08-09T01:45:00.553Z,0.80
2023-08-09T01:47:31.416Z,0.98
2023-08-09T01:50:00.613Z,1.00
2023-08-09T01:52:29.485Z,0.75
2023-08-09T01:54:58.319Z,0.93
2023-08-09T01:57:28.634Z,1.10
2023-08-09T01:59:57.490Z,1.10
2023-08-09T02:02:26.454Z,1.30
2023-08-09T02:04:55.438Z,1.20
2023-08-09T02:07:24.098Z,1.10
2023-08-09T02:09:52.924Z,0.85
2023-08-09T02:12:21.721Z,1.00
2023-08-09T02:14:52.010Z,1.05
2023-08-09T02:17:20.770Z,1.05
2023-08-09T02:19:49.812Z,1.22
2023-08-09T02:22:19.220Z,1.10
2023-08-09T02:24:48.304Z,0.90
2023-08-09T02:27:17.151Z,1.20
2023-08-09T02:29:47.037Z,1.10
2023-08-09T02:32:15.890Z,1.10
2023-08-09T02:34:44.529Z,1.00
2023-08-09T02:37:13.201Z,1.07
2023-08-09T02:39:41.977Z,0.90
2023-08-09T02:42:10.809Z,1.30
2023-08-09T02:44:40.086Z,0.85
2023-08-09T02:47:10.615Z,1.07
2023-08-09T02:49:39.430Z,1.30
2023-08-09T02:52:11.126Z,1.20
2023-08-09T02:54:45.867Z,1.10
2023-08-09T02:57:19.346Z,1.40
2023-08-09T02:59:49.075Z,1.22
2023-08-09T03:02:28.254Z,1.47
2023-08-09T03:04:57.277Z,1.30
2023-08-09T03:07:29.106Z,1.90
2023-08-09T03:09:59.431Z,1.35
2023-08-09T03:12:28.219Z,1.50
2023-08-09T03:15:04.658Z,1.35
2023-08-09T03:17:36.698Z,1.82
2023-08-09T03:20:13.099Z,1.90
2023-08-09T03:22:46.876Z,1.85
2023-08-09T03:25:18.419Z,2.02
2023-08-09T03:27:47.130Z,2.42
2023-08-09T03:30:17.435Z,2.08
2023-08-09T03:32:46.141Z,1.85
2023-08-09T03:35:18.008Z,1.90
2023-08-09T03:37:52.457Z,1.85
2023-08-09T03:40:25.681Z,1.90
2023-08-09T03:43:27.972Z,2.15
2023-08-09T03:45:28.089Z,2.12
2023-08-09T03:47:57.471Z,2.55
2023-08-09T03:50:27.122Z,3.25
2023-08-09T03:52:56.325Z,2.25
2023-08-09T03:55:25.232Z,2.65
2023-08-09T03:57:55.444Z,2.70
2023-08-09T04:00:26.381Z,2.45
2023-08-09T04:02:56.045Z,2.42
2023-08-09T04:05:25.037Z,2.52
2023-08-09T04:07:53.808Z,2.25
2023-08-09T04:10:22.573Z,2.05
2023-08-09T04:12:51.608Z,2.00
2023-08-09T04:15:20.419Z,2.67
2023-08-09T04:17:50.785Z,2.10
2023-08-09T04:20:20.519Z,2.30
2023-08-09T04:22:49.335Z,2.05
2023-08-09T04:25:19.274Z,2.30
2023-08-09T04:27:48.223Z,2.47
2023-08-09T04:30:16.966Z,2.47
2023-08-09T04:32:45.809Z,2.80
2023-08-09T04:35:15.137Z,2.47
2023-08-09T04:37:43.965Z,2.90
2023-08-09T04:40:13.457Z,2.95
2023-08-09T04:42:48.445Z,2.70
2023-08-09T04:45:17.269Z,3.60
2023-08-09T04:47:46.143Z,2.50
2023-08-09T04:50:14.828Z,3.17
2023-08-09T04:52:44.162Z,2.80
2023-08-09T04:55:12.956Z,2.77
2023-08-09T04:57:43.061Z,3.02
2023-08-09T05:00:12.747Z,2.98
2023-08-09T05:02:42.357Z,2.77
2023-08-09T05:07:41.699Z,2.20
2023-08-09T05:10:12.613Z,2.30
2023-08-09T05:12:41.626Z,2.70
2023-08-09T05:15:11.626Z,2.65
2023-08-09T05:17:40.618Z,2.17
2023-08-09T05:20:13.533Z,2.60
2023-08-09T05:22:41.995Z,2.58
2023-08-09T05:25:12.556Z,2.83
2023-08-09T05:27:41.904Z,2.55
2023-08-09T05:30:12.325Z,2.80
2023-08-09T05:32:41.130Z,3.35
2023-08-09T05:35:10.432Z,3.02
2023-08-09T05:37:41.164Z,2.72
2023-08-09T05:40:19.199Z,2.70
2023-08-09T05:42:48.364Z,3.17
2023-08-09T05:48:32.100Z,2.77
2023-08-09T05:51:06.681Z,2.70
2023-08-09T05:53:35.969Z,2.77
2023-08-09T05:56:06.513Z,2.70
2023-08-09T05:58:37.004Z,2.77
2023-08-09T06:01:16.018Z,2.95
2023-08-09T06:03:57.115Z,2.72
2023-08-09T06:06:34.339Z,3.05
2023-08-09T06:09:33.618Z,2.80
2023-08-09T06:12:10.537Z,2.87
2023-08-09T06:14:48.369Z,2.83
2023-08-09T06:17:19.217Z,2.87
2023-08-09T06:23:27.068Z,3.50
2023-08-09T06:26:05.497Z,3.22
2023-08-09T06:28:44.430Z,3.37
2023-08-09T06:31:17.551Z,3.20
2023-08-09T06:33:46.836Z,3.65
2023-08-09T06:36:47.569Z,3.58
2023-08-09T06:39:16.462Z,4.10
2023-08-09T06:41:45.272Z,4.33
2023-08-09T06:44:14.142Z,4.12
2023-08-09T06:46:46.592Z,4.70
2023-08-09T06:49:15.432Z,4.30
2023-08-09T06:51:44.066Z,4.03
2023-08-09T06:54:19.125Z,4.30
2023-08-09T06:56:47.902Z,3.77
2023-08-09T06:59:16.699Z,4.17
2023-08-09T07:01:47.225Z,4.42
2023-08-09T07:04:16.669Z,3.92
2023-08-09T07:06:46.107Z,4.08
2023-08-09T07:09:19.253Z,4.10
2023-08-09T07:11:51.040Z,4.92
2023-08-09T07:14:22.037Z,4.45
2023-08-09T07:16:53.942Z,5.75
2023-08-09T07:19:24.564Z,3.92
2023-08-09T07:21:53.488Z,3.95
2023-08-09T07:24:28.790Z,4.20
2023-08-09T07:27:10.984Z,3.62
2023-08-09T07:29:51.896Z,3.70
2023-08-09T07:32:20.689Z,3.33
2023-08-09T07:34:49.502Z,3.50
2023-08-09T07:37:19.714Z,3.50
2023-08-09T07:39:52.766Z,2.75
2023-08-09T07:42:21.597Z,2.77
2023-08-09T07:44:53.215Z,2.40
2023-08-09T07:47:22.027Z,2.60
2023-08-09T07:49:53.515Z,2.67
2023-08-09T07:52:24.658Z,2.20
2023-08-09T07:54:53.446Z,4.15
2023-08-09T07:57:51.475Z,2.50
2023-08-09T08:00:26.471Z,3.35
2023-08-09T08:02:53.729Z,2.22
2023-08-09T08:05:25.563Z,1.82
2023-08-09T08:07:55.636Z,1.92
2023-08-09T08:10:42.164Z,2.12
2023-08-09T08:13:16.882Z,2.33
2023-08-09T08:15:45.961Z,2.62
2023-08-09T08:18:14.808Z,1.92
2023-08-09T08:20:43.635Z,1.47
2023-08-09T08:23:12.446Z,1.70
2023-08-09T08:25:41.208Z,1.87
2023-08-09T08:28:09.853Z,1.80
2023-08-09T08:30:39.620Z,1.82
2023-08-09T08:33:09.619Z,1.92
2023-08-09T08:35:40.007Z,1.87
2023-08-09T08:38:09.014Z,2.00
2023-08-09T08:40:40.324Z,1.52
2023-08-09T08:43:12.069Z,1.67
2023-08-09T08:45:43.192Z,2.08
2023-08-09T08:48:13.662Z,1.80
2023-08-09T08:50:46.080Z,1.75
2023-08-09T08:53:15.832Z,1.57
2023-08-09T08:55:53.734Z,1.92
2023-08-09T08:58:26.165Z,1.82
2023-08-09T09:00:58.791Z,1.80
2023-08-09T09:06:33.707Z,2.00
2023-08-09T09:09:03.617Z,1.87
2023-08-09T09:11:36.820Z,2.92
2023-08-09T09:14:13.439Z,1.62
2023-08-09T09:16:45.565Z,2.47
2023-08-09T09:19:14.868Z,2.17
2023-08-09T09:21:45.113Z,1.50
2023-08-09T09:24:13.998Z,1.65
2023-08-09T09:26:44.910Z,1.50
2023-08-09T09:29:13.521Z,1.35
2023-08-09T09:31:43.664Z,1.50
2023-08-09T09:34:18.532Z,1.67
2023-08-09T09:36:52.996Z,4.37
2023-08-09T09:39:22.152Z,4.22
2023-08-09T09:41:52.012Z,2.90
2023-08-09T09:44:22.946Z,1.65
2023-08-09T09:46:57.637Z,1.30
2023-08-09T09:49:26.430Z,1.67
2023-08-09T09:51:57.742Z,1.10
2023-08-09T09:54:27.302Z,7.33
2023-08-09T09:56:56.016Z,1.45
2023-08-09T09:59:24.930Z,1.87
2023-08-09T10:01:55.003Z,1.62
2023-08-09T10:04:25.518Z,1.25
2023-08-09T10:06:57.965Z,2.35
2023-08-09T10:09:28.021Z,1.27
2023-08-09T10:11:59.799Z,1.47
2023-08-09T10:14:31.984Z,1.30
2023-08-09T10:17:14.892Z,1.27
2023-08-09T10:19:35.207Z,1.32
2023-08-09T10:22:07.053Z,7.25
2023-08-09T10:24:38.940Z,2.00
2023-08-09T10:27:09.339Z,1.60
2023-08-09T10:29:39.521Z,1.55
2023-08-09T10:32:08.418Z,1.57
2023-08-09T10:34:44.858Z,1.35
2023-08-09T10:37:13.477Z,1.47
2023-08-09T10:39:43.326Z,1.10
2023-08-09T10:42:15.423Z,1.37
2023-08-09T10:44:51.534Z,1.50
2023-08-09T10:47:27.515Z,1.20
2023-08-09T10:50:00.924Z,1.10
2023-08-09T10:52:34.765Z,1.10
2023-08-09T10:55:26.433Z,1.10
2023-08-09T10:58:06.215Z,1.25
2023-08-09T11:00:42.598Z,1.05
2023-08-09T11:03:13.266Z,1.32
2023-08-09T11:05:42.555Z,1.30
2023-08-09T11:08:13.292Z,1.27
2023-08-09T11:10:43.022Z,1.10
2023-08-09T11:13:17.180Z,1.20
2023-08-09T11:15:52.531Z,1.30
2023-08-09T11:18:33.739Z,1.12
2023-08-09T11:21:01.513Z,1.40
2023-08-09T11:23:31.935Z,1.30
2023-08-09T11:26:16.659Z,1.10
2023-08-09T11:28:47.106Z,1.20
2023-08-09T11:31:15.970Z,1.30
2023-08-09T11:33:50.266Z,1.45
2023-08-09T11:36:19.119Z,1.20
2023-08-09T11:38:48.014Z,1.32
2023-08-09T11:41:20.752Z,1.27
2023-08-09T11:43:50.018Z,1.22
2023-08-09T11:46:29.053Z,1.12
2023-08-09T11:52:38.668Z,1.10
2023-08-09T11:55:14.328Z,1.10
2023-08-09T11:58:06.178Z,1.30
2023-08-09T12:00:19.200Z,1.32
2023-08-09T12:02:50.262Z,1.10
2023-08-09T12:05:27.665Z,0.95
2023-08-09T12:08:11.234Z,1.20
2023-08-09T12:10:50.279Z,1.25
2023-08-09T12:13:20.362Z,1.12
2023-08-09T12:16:02.723Z,1.47
2023-08-09T12:18:39.772Z,1.00
2023-08-09T12:21:14.921Z,0.95
2023-08-09T12:23:50.320Z,1.05
2023-08-09T12:26:20.827Z,1.25
2023-08-09T12:28:49.904Z,1.25
2023-08-09T12:31:18.633Z,1.17
2023-08-09T12:33:47.539Z,1.40
2023-08-09T12:36:16.280Z,1.00
2023-08-09T12:38:44.914Z,1.00
2023-08-09T12:41:13.707Z,1.20
2023-08-09T12:43:42.507Z,0.80
2023-08-09T12:46:11.438Z,1.30
2023-08-09T12:48:40.220Z,1.15
2023-08-09T12:51:10.463Z,1.30
2023-08-09T12:53:40.207Z,1.12
2023-08-09T12:56:10.185Z,1.07
2023-08-09T12:58:38.977Z,1.05
2023-08-09T13:01:08.770Z,1.25
2023-08-09T13:03:37.521Z,0.98
2023-08-09T13:06:06.357Z,1.00
2023-08-09T13:08:35.428Z,1.00
2023-08-09T13:11:06.053Z,1.07
2023-08-09T13:13:35.021Z,1.27
2023-08-09T13:16:05.363Z,1.20
2023-08-09T13:18:34.183Z,1.20
2023-08-09T13:21:08.418Z,1.10
2023-08-09T13:23:38.815Z,1.25
2023-08-09T13:26:43.635Z,1.17
2023-08-09T13:29:13.653Z,1.25
2023-08-09T13:31:46.618Z,1.27
2023-08-09T13:34:15.063Z,1.95
2023-08-09T13:36:45.932Z,1.35
2023-08-09T13:39:23.786Z,1.10
2023-08-09T13:41:51.567Z,1.32
2023-08-09T13:44:23.183Z,1.20
2023-08-09T13:47:29.011Z,1.40
2023-08-09T14:02:47.168Z,1.10
2023-08-09T14:05:20.533Z,1.10
2023-08-09T14:07:54.502Z,1.10
2023-08-09T14:10:24.898Z,1.07
2023-08-09T14:15:51.336Z,1.20
2023-08-09T14:18:23.433Z,1.15
2023-08-09T14:20:53.949Z,1.98
2023-08-09T14:23:22.823Z,1.00
2023-08-09T14:25:51.647Z,1.77
2023-08-09T14:28:22.196Z,1.27
2023-08-09T14:30:53.203Z,1.10
2023-08-09T14:33:22.351Z,0.90
2023-08-09T14:35:51.245Z,1.02
2023-08-09T14:38:20.186Z,1.07
2023-08-09T14:40:56.295Z,1.00
2023-08-09T14:43:27.588Z,1.12
2023-08-09T14:45:56.590Z,1.00
2023-08-09T14:48:25.432Z,1.20
2023-08-09T14:50:56.248Z,0.85
2023-08-09T14:53:25.082Z,1.47
2023-08-09T14:55:54.250Z,1.00
2023-08-09T14:58:22.966Z,1.20
2023-08-09T15:00:51.844Z,1.10
2023-08-09T15:03:20.675Z,1.12
2023-08-09T15:05:49.548Z,1.30
2023-08-09T15:08:19.775Z,1.22
2023-08-09T15:10:48.476Z,1.27
2023-08-09T15:13:20.282Z,0.90
2023-08-09T15:15:48.725Z,1.10
2023-08-09T15:18:17.583Z,0.88
2023-08-09T15:20:46.284Z,0.75
2023-08-09T15:23:17.493Z,0.95
2023-08-09T15:25:46.520Z,1.27
2023-08-09T15:28:18.365Z,1.10
2023-08-09T15:30:47.264Z,1.00
2023-08-09T15:33:17.540Z,0.90
2023-08-09T15:35:46.441Z,1.10
2023-08-09T15:38:16.732Z,0.88
2023-08-09T15:40:45.466Z,0.85
2023-08-09T15:43:17.010Z,1.42
2023-08-09T15:45:48.090Z,1.20
2023-08-09T15:48:16.964Z,1.32
2023-08-09T15:50:45.891Z,1.87
2023-08-09T15:53:14.738Z,0.95
2023-08-09T15:55:45.713Z,1.67
2023-08-09T15:58:14.913Z,1.00
2023-08-09T16:00:55.161Z,0.82
2023-08-09T16:03:18.455Z,1.02
2023-08-09T16:05:48.109Z,1.02
2023-08-09T16:08:17.647Z,1.20
2023-08-09T16:10:46.424Z,1.00
2023-08-09T16:13:15.297Z,1.12
2023-08-09T16:15:44.011Z,1.30
2023-08-09T16:18:12.907Z,1.60
2023-08-09T16:20:41.921Z,1.22
2023-08-09T16:23:11.959Z,1.27
2023-08-09T16:25:40.719Z,1.30
2023-08-09T16:28:09.885Z,1.10
2023-08-09T16:30:39.267Z,1.05
2023-08-09T16:33:08.091Z,1.32
2023-08-09T16:35:38.545Z,1.20
2023-08-09T16:38:08.944Z,1.57
2023-08-09T16:40:38.802Z,1.30
2023-08-09T16:43:08.153Z,1.30
2023-08-09T16:45:36.922Z,1.50
2023-08-09T16:48:06.169Z,1.17
2023-08-09T16:50:35.943Z,1.52
2023-08-09T16:53:05.547Z,1.12
2023-08-09T16:55:34.558Z,1.10
2023-08-09T16:58:03.401Z,1.60
2023-08-09T17:00:32.082Z,1.10
2023-08-09T17:03:01.074Z,1.40
2023-08-09T17:05:30.208Z,1.22
2023-08-09T17:08:00.102Z,1.27
2023-08-09T17:10:30.678Z,1.37
2023-08-09T17:13:00.340Z,1.27
2023-08-09T17:15:29.200Z,1.40
2023-08-09T17:18:00.507Z,1.40
2023-08-09T17:20:29.337Z,2.60
2023-08-09T17:23:01.194Z,2.87
2023-08-09T17:25:30.735Z,1.45
2023-08-09T17:27:59.559Z,1.52
2023-08-09T17:30:28.954Z,2.20
2023-08-09T17:32:58.850Z,2.20
2023-08-09T17:35:29.222Z,3.20
2023-08-09T17:37:58.101Z,1.57
2023-08-09T17:40:26.816Z,3.70
2023-08-09T17:42:56.436Z,1.27
2023-08-09T17:45:25.576Z,8.83
2023-08-09T17:47:54.358Z,1.80
2023-08-09T17:50:28.471Z,1.98
2023-08-09T17:53:05.791Z,1.60
2023-08-09T17:55:36.142Z,1.42
2023-08-09T17:58:17.712Z,2.42
2023-08-09T18:00:48.366Z,2.00
2023-08-09T18:03:18.944Z,1.92
2023-08-09T18:05:49.514Z,1.90
2023-08-09T18:08:18.324Z,1.80
2023-08-09T18:10:49.676Z,2.10
2023-08-09T18:13:21.750Z,2.20
2023-08-09T18:15:50.892Z,1.75
2023-08-09T18:18:20.263Z,2.05
2023-08-09T18:20:49.431Z,1.52
2023-08-09T18:23:18.470Z,1.60
2023-08-09T18:25:47.146Z,1.72
2023-08-09T18:28:15.993Z,1.50
2023-08-09T18:30:45.506Z,1.80
2023-08-09T18:33:14.318Z,1.70
2023-08-09T18:35:43.471Z,1.65
2023-08-09T18:38:12.178Z,3.60
2023-08-09T18:40:49.838Z,2.30
2023-08-09T18:43:18.614Z,2.10
2023-08-09T18:45:47.499Z,2.92
2023-08-09T18:48:16.258Z,2.90
2023-08-09T18:50:44.880Z,1.90
2023-08-09T18:53:13.569Z,1.60
2023-08-09T18:55:43.404Z,1.67
2023-08-09T18:58:12.296Z,2.00
2023-08-09T19:00:41.429Z,1.37
2023-08-09T19:03:10.287Z,1.52
2023-08-09T19:05:39.128Z,1.50
2023-08-09T19:08:07.878Z,1.57
2023-08-09T19:10:36.805Z,1.60
2023-08-09T19:13:07.267Z,1.92
2023-08-09T19:15:38.692Z,1.77
2023-08-09T19:18:07.189Z,1.47
2023-08-09T19:20:36.027Z,2.00
2023-08-09T19:23:05.815Z,1.82
2023-08-09T19:25:38.879Z,1.60
2023-08-09T19:28:09.823Z,1.57
2023-08-09T19:30:38.597Z,2.17
2023-08-09T19:33:09.516Z,2.85
2023-08-09T19:35:44.484Z,1.80
2023-08-09T19:38:19.557Z,1.70
2023-08-09T19:40:48.672Z,2.00
2023-08-09T19:43:22.571Z,1.92
2023-08-09T19:45:51.597Z,2.05
2023-08-09T19:48:20.301Z,1.70
2023-08-09T19:50:52.263Z,1.85
2023-08-09T19:53:22.463Z,1.70
2023-08-09T19:55:52.721Z,1.52
2023-08-09T19:58:21.568Z,2.02
2023-08-09T20:00:50.510Z,1.80
2023-08-09T20:03:20.459Z,1.92
2023-08-09T20:05:49.350Z,1.52
2023-08-09T20:08:22.565Z,2.27
2023-08-09T20:13:50.630Z,1.72
2023-08-09T20:16:19.471Z,1.60
2023-08-09T20:18:49.114Z,1.22
2023-08-09T20:21:18.509Z,1.72
2023-08-09T20:23:48.615Z,1.45
2023-08-09T20:26:17.376Z,1.30
2023-08-09T20:28:47.614Z,1.30
2023-08-09T20:31:16.357Z,1.40
2023-08-09T20:33:45.171Z,1.15
2023-08-09T20:36:14.530Z,1.75
2023-08-09T20:38:43.139Z,1.60
2023-08-09T20:41:11.805Z,1.10
2023-08-09T20:43:41.221Z,1.70
2023-08-09T20:46:09.988Z,1.27
2023-08-09T20:48:42.129Z,1.45
2023-08-09T20:51:13.375Z,1.98
2023-08-09T20:53:42.211Z,2.33
2023-08-09T20:56:10.953Z,1.27
2023-08-09T20:58:39.671Z,1.15
2023-08-09T21:01:14.127Z,1.17
2023-08-09T21:03:43.043Z,1.50
2023-08-09T21:06:12.910Z,1.60
2023-08-09T21:08:41.739Z,1.30
2023-08-09T21:11:11.940Z,1.15
2023-08-09T21:13:43.753Z,1.20
2023-08-09T21:16:12.471Z,1.40
2023-08-09T21:18:45.800Z,1.30
2023-08-09T21:21:15.101Z,1.30
2023-08-09T21:26:17.242Z,1.37
2023-08-09T21:28:47.448Z,1.60
2023-08-09T21:31:16.845Z,1.10
2023-08-09T21:33:45.592Z,1.17
2023-08-09T21:36:16.205Z,1.37
2023-08-09T21:38:46.806Z,1.10
2023-08-09T21:44:23.805Z,1.20
2023-08-09T21:46:53.136Z,1.40
2023-08-09T21:49:21.814Z,1.40
2023-08-09T21:51:52.232Z,1.45
2023-08-09T21:54:21.133Z,1.75
2023-08-09T21:56:49.728Z,1.55
2023-08-09T21:59:18.548Z,1.40
2023-08-09T22:01:47.438Z,1.27
2023-08-09T22:04:16.080Z,1.20
2023-08-09T22:06:44.895Z,1.20
2023-08-09T22:09:13.700Z,1.42
2023-08-09T22:11:44.055Z,1.60
2023-08-09T22:14:12.843Z,1.15
2023-08-09T22:16:41.708Z,1.30
2023-08-09T22:19:11.211Z,1.92
2023-08-09T22:24:36.765Z,1.30
2023-08-09T22:27:03.121Z,1.20
2023-08-09T22:29:38.134Z,1.37
2023-08-09T22:32:08.478Z,1.20
2023-08-09T22:34:40.302Z,1.27
2023-08-09T22:37:13.886Z,1.20
2023-08-09T22:39:42.585Z,1.17
2023-08-09T22:42:11.305Z,1.35
2023-08-09T22:44:40.219Z,1.37
2023-08-09T22:47:08.813Z,1.12
2023-08-09T22:49:37.592Z,1.60
2023-08-09T22:52:06.769Z,1.52
2023-08-09T22:54:35.866Z,1.20
2023-08-09T22:57:05.324Z,1.30
2023-08-09T22:59:34.047Z,1.20
2023-08-09T23:02:03.303Z,1.15
2023-08-09T23:04:32.285Z,1.05
2023-08-09T23:07:00.972Z,1.27
2023-08-09T23:09:30.581Z,0.98
2023-08-09T23:11:59.482Z,0.93
2023-08-09T23:14:28.550Z,1.10
2023-08-09T23:16:57.560Z,1.57
2023-08-09T23:19:26.276Z,1.10
2023-08-09T23:21:55.957Z,1.15
2023-08-09T23:24:24.700Z,1.17
2023-08-09T23:26:54.120Z,1.25
2023-08-09T23:29:22.842Z,1.30
2023-08-09T23:31:53.004Z,1.12
2023-08-09T23:34:21.689Z,1.25
2023-08-09T23:36:50.473Z,1.00
2023-08-09T23:39:19.222Z,1.10
2023-08-09T23:41:47.930Z,0.90
2023-08-09T23:44:16.653Z,1.00
2023-08-09T23:46:45.501Z,0.95
2023-08-09T23:49:15.489Z,1.00
2023-08-09T23:51:44.252Z,0.98
2023-08-09T23:54:13.054Z,1.02
2023-08-09T23:56:41.999Z,1.00
2023-08-09T23:59:10.676Z,0.93
